PWSweather.com
Personal Weather Stations
Station Observations
OBERT
Bodensee Hinterland, OberteuringenDE

Bodensee HinterlandOberteuringenDE

Lat: 47.714675, Lon: 9.44447

Elevation: 1427

Station Type: Wunder Weather Station

Latest ConditionsUpdated 10:21:17 PM GMT+01:01 Thursday, Oct 18, 2018
Currently Today's Max Today's Min Today's Average
Temperature 54.6°F12.6°C 69.6°F20.9°C 46.7°F8.2°C 57.2°F14.0°C
Dew Point 52.4°F11.3°C 54.5°F12.5°C 46.7°F8.2°C 51.6°F10.9°C
Winds 7.3 mph NW11.7 kmh NW 11.1 mph -17.9 kmh - - 4.7 mph 7.6 kmh
Wind Gusts 11.2 mph18.0 kmh 19.6 mph31.5 kmh - -
Humidity 92% 100% 58% 83%
Pressure 30.10 in1019.3 mb 30.11 in1019.6 mb 30.04 in1017.3 mb -
Hour Temp Dew Point Humidity Winds Wind Gusts Pressure Precip Precip Rate Daily Precip Total
10:21 PM 54.6°F12.6°C 52.4°F11.3°C 92% 7.3 mph NW11.7 kmh NW 11.2 mph18.0 kmh 30.10 in1019.3 mb 0.00 in0.0 mm 0.00 in0.0 mm 0.00 in0.0 mm
09:51 PM 55.0°F12.8°C 52.6°F11.4°C 91% 6.2 mph NNW10.0 kmh NNW 10.6 mph17.1 kmh 30.11 in1019.6 mb 0.00 in0.0 mm 0.00 in0.0 mm 0.00 in0.0 mm
09:39 PM 55.0°F12.8°C 52.8°F11.6°C 92% 6.5 mph N10.5 kmh N 10.6 mph17.1 kmh 30.10 in1019.3 mb 0.00 in0.0 mm 0.00 in0.0 mm 0.00 in0.0 mm
09:09 PM 54.1°F12.3°C 52.6°F11.4°C 94% 5.1 mph N8.2 kmh N 7.8 mph12.6 kmh 30.11 in1019.6 mb 0.00 in0.0 mm 0.00 in0.0 mm 0.00 in0.0 mm
08:39 PM 52.8°F11.6°C 51.5°F10.8°C 95% 2.4 mph 3.9 kmh 4.3 mph6.9 kmh 30.10 in1019.3 mb 0.00 in0.0 mm 0.00 in0.0 mm 0.00 in0.0 mm
08:09 PM 53.0°F11.7°C 51.0°F10.6°C 92% 2.4 mph N3.9 kmh N 4.6 mph7.4 kmh 30.10 in1019.3 mb 0.00 in0.0 mm 0.00 in0.0 mm 0.00 in0.0 mm
07:39 PM 53.2°F11.8°C 50.8°F10.4°C 91% 2.6 mph NNW4.2 kmh NNW 4.0 mph6.4 kmh 30.09 in1019.0 mb 0.00 in0.0 mm 0.00 in0.0 mm 0.00 in0.0 mm
07:09 PM 54.6°F12.6°C 51.3°F10.7°C 88% 3.5 mph 5.6 kmh 5.3 mph8.5 kmh 30.08 in1018.6 mb 0.00 in0.0 mm 0.00 in0.0 mm 0.00 in0.0 mm
06:39 PM 55.7°F13.2°C 51.6°F10.9°C 85% 4.3 mph 6.9 kmh 5.0 mph8.0 kmh 30.08 in1018.6 mb 0.00 in0.0 mm 0.00 in0.0 mm 0.00 in0.0 mm
06:09 PM 56.3°F13.5°C 51.4°F10.8°C 83% 0.9 mph N1.4 kmh N -- 30.07 in1018.3 mb 0.00 in0.0 mm 0.00 in0.0 mm 0.00 in0.0 mm
05:39 PM 58.4°F14.7°C 52.2°F11.2°C 79% 3.0 mph 4.8 kmh 5.6 mph9.0 kmh 30.06 in1017.9 mb 0.00 in0.0 mm 0.00 in0.0 mm 0.00 in0.0 mm
05:09 PM 61.3°F16.3°C 52.1°F11.2°C 71% 3.6 mph N5.8 kmh N 7.5 mph12.1 kmh 30.05 in1017.6 mb 0.00 in0.0 mm 0.00 in0.0 mm 0.00 in0.0 mm
04:39 PM 65.1°F18.4°C 53.1°F11.7°C 65% 5.6 mph NNW9.0 kmh NNW 10.3 mph16.6 kmh 30.05 in1017.6 mb 0.00 in0.0 mm 0.00 in0.0 mm 0.00 in0.0 mm
04:09 PM 65.8°F18.8°C 53.6°F12.0°C 64% 4.4 mph NNW7.1 kmh NNW 10.6 mph17.1 kmh 30.05 in1017.6 mb 0.00 in0.0 mm 0.00 in0.0 mm 0.00 in0.0 mm
03:39 PM 67.1°F19.5°C 53.1°F11.7°C 60% 11.1 mph NNW17.9 kmh NNW 15.6 mph25.1 kmh 30.04 in1017.3 mb 0.00 in0.0 mm 0.00 in0.0 mm 0.00 in0.0 mm
03:09 PM 68.1°F20.1°C 54.1°F12.3°C 60% 8.9 mph NNW14.3 kmh NNW 16.5 mph26.6 kmh 30.04 in1017.3 mb 0.00 in0.0 mm 0.00 in0.0 mm 0.00 in0.0 mm
02:38 PM 68.3°F20.2°C 54.4°F12.4°C 61% 9.6 mph NW15.4 kmh NW 16.2 mph26.1 kmh 30.04 in1017.3 mb 0.00 in0.0 mm 0.00 in0.0 mm 0.00 in0.0 mm
02:08 PM 68.9°F20.5°C 53.6°F12.0°C 58% 8.7 mph NW14.0 kmh NW 19.6 mph31.5 kmh 30.05 in1017.6 mb 0.00 in0.0 mm 0.00 in0.0 mm 0.00 in0.0 mm
01:38 PM 68.3°F20.2°C 53.1°F11.7°C 58% 9.0 mph NW14.5 kmh NW 15.0 mph24.1 kmh 30.06 in1017.9 mb 0.00 in0.0 mm 0.00 in0.0 mm 0.00 in0.0 mm
01:08 PM 68.5°F20.3°C 54.3°F12.4°C 60% 9.3 mph N15.0 kmh N 14.6 mph23.5 kmh 30.06 in1017.9 mb 0.00 in0.0 mm 0.00 in0.0 mm 0.00 in0.0 mm
12:38 PM 69.6°F20.9°C 54.4°F12.4°C 58% 9.0 mph NNW14.5 kmh NNW 15.9 mph25.6 kmh 30.06 in1017.9 mb 0.00 in0.0 mm 0.00 in0.0 mm 0.00 in0.0 mm
12:08 PM 68.5°F20.3°C 54.2°F12.3°C 60% 9.6 mph NW15.4 kmh NW 15.6 mph25.1 kmh 30.07 in1018.3 mb 0.00 in0.0 mm 0.00 in0.0 mm 0.00 in0.0 mm
11:38 AM 66.7°F19.3°C 53.7°F12.1°C 63% 10.0 mph NW16.1 kmh NW 15.9 mph25.6 kmh 30.07 in1018.3 mb 0.00 in0.0 mm 0.00 in0.0 mm 0.00 in0.0 mm
11:08 AM 66.2°F19.0°C 54.1°F12.3°C 65% 8.0 mph NW12.9 kmh NW 13.1 mph21.1 kmh 30.08 in1018.6 mb 0.00 in0.0 mm 0.00 in0.0 mm 0.00 in0.0 mm
10:38 AM 64.5°F18.1°C 54.5°F12.5°C 69% 7.8 mph NNW12.6 kmh NNW 12.1 mph19.5 kmh 30.08 in1018.6 mb 0.00 in0.0 mm 0.00 in0.0 mm 0.00 in0.0 mm
10:08 AM 62.7°F17.1°C 54.0°F12.2°C 73% 6.4 mph NW10.3 kmh NW 10.9 mph17.5 kmh 30.09 in1019.0 mb 0.00 in0.0 mm 0.00 in0.0 mm 0.00 in0.0 mm
09:38 AM 60.9°F16.1°C 54.0°F12.2°C 78% 4.8 mph N7.7 kmh N 9.0 mph14.5 kmh 30.09 in1019.0 mb 0.00 in0.0 mm 0.00 in0.0 mm 0.00 in0.0 mm
09:08 AM 57.0°F13.9°C 54.0°F12.2°C 89% 1.5 mph N2.4 kmh N 4.0 mph6.4 kmh 30.09 in1019.0 mb 0.00 in0.0 mm 0.00 in0.0 mm 0.00 in0.0 mm
08:38 AM 54.1°F12.3°C 52.1°F11.2°C 93% 3.2 mph 5.1 kmh 4.3 mph6.9 kmh 30.08 in1018.6 mb 0.00 in0.0 mm 0.00 in0.0 mm 0.00 in0.0 mm
08:08 AM 51.8°F11.0°C 50.6°F10.3°C 95% 4.4 mph 7.1 kmh 6.5 mph10.5 kmh 30.07 in1018.3 mb 0.00 in0.0 mm 0.00 in0.0 mm 0.00 in0.0 mm
07:38 AM 49.4°F9.7°C 49.4°F9.7°C 100% 2.7 mph 4.3 kmh 5.0 mph8.0 kmh 30.08 in1018.6 mb 0.00 in0.0 mm 0.00 in0.0 mm 0.00 in0.0 mm
07:08 AM 49.1°F9.5°C 49.1°F9.5°C 100% 3.7 mph N6.0 kmh N 5.3 mph8.5 kmh 30.07 in1018.3 mb 0.00 in0.0 mm 0.00 in0.0 mm 0.00 in0.0 mm
06:38 AM 48.3°F9.1°C 48.3°F9.1°C 100% 2.9 mph 4.7 kmh 4.3 mph6.9 kmh 30.06 in1017.9 mb 0.00 in0.0 mm 0.00 in0.0 mm 0.00 in0.0 mm
06:08 AM 46.7°F8.2°C 46.7°F8.2°C 100% Calm Calm -- 30.05 in1017.6 mb 0.00 in0.0 mm 0.00 in0.0 mm 0.00 in0.0 mm
05:38 AM 47.3°F8.5°C 47.3°F8.5°C 100% 1.9 mph N3.1 kmh N 2.8 mph4.5 kmh 30.05 in1017.6 mb 0.00 in0.0 mm 0.00 in0.0 mm 0.00 in0.0 mm
05:08 AM 50.3°F10.2°C 49.8°F9.9°C 98% 2.5 mph 4.0 kmh 3.4 mph5.5 kmh 30.05 in1017.6 mb 0.00 in0.0 mm 0.00 in0.0 mm 0.00 in0.0 mm
04:38 AM 50.5°F10.3°C 49.7°F9.8°C 97% 2.6 mph 4.2 kmh 3.7 mph6.0 kmh 30.05 in1017.6 mb 0.00 in0.0 mm 0.00 in0.0 mm 0.00 in0.0 mm
04:08 AM 50.5°F10.3°C 49.7°F9.8°C 97% 3.3 mph 5.3 kmh 5.6 mph9.0 kmh 30.04 in1017.3 mb 0.00 in0.0 mm 0.00 in0.0 mm 0.00 in0.0 mm
03:38 AM 50.5°F10.3°C 49.4°F9.7°C 96% 2.8 mph 4.5 kmh 4.3 mph6.9 kmh 30.05 in1017.6 mb 0.00 in0.0 mm 0.00 in0.0 mm 0.00 in0.0 mm
03:26 AM 51.4°F10.8°C 49.8°F9.9°C 94% 3.0 mph 4.8 kmh 4.3 mph6.9 kmh 30.05 in1017.6 mb 0.00 in0.0 mm 0.00 in0.0 mm 0.00 in0.0 mm
02:56 AM 51.4°F10.8°C 49.9°F9.9°C 94% 2.3 mph 3.7 kmh 5.3 mph8.5 kmh 30.05 in1017.6 mb 0.00 in0.0 mm 0.00 in0.0 mm 0.00 in0.0 mm
02:25 AM 51.4°F10.8°C 49.8°F9.9°C 94% 1.6 mph 2.6 kmh 3.7 mph6.0 kmh 30.06 in1017.9 mb 0.00 in0.0 mm 0.00 in0.0 mm 0.00 in0.0 mm
01:55 AM 51.8°F11.0°C 49.9°F9.9°C 93% 2.4 mph 3.9 kmh 4.0 mph6.4 kmh 30.05 in1017.6 mb 0.00 in0.0 mm 0.00 in0.0 mm 0.00 in0.0 mm
01:25 AM 51.4°F10.8°C 50.0°F10.0°C 94% 2.6 mph 4.2 kmh 4.6 mph7.4 kmh 30.06 in1017.9 mb 0.00 in0.0 mm 0.00 in0.0 mm 0.00 in0.0 mm
12:55 AM 51.4°F10.8°C 49.5°F9.7°C 93% 2.1 mph 3.4 kmh 4.3 mph6.9 kmh 30.05 in1017.6 mb 0.00 in0.0 mm 0.00 in0.0 mm 0.00 in0.0 mm
12:25 AM 51.6°F10.9°C 49.6°F9.8°C 93% 2.3 mph 3.7 kmh 5.9 mph9.5 kmh 30.05 in1017.6 mb 0.00 in0.0 mm 0.00 in0.0 mm 0.00 in0.0 mm